メインページ
METAR-TAF:

METAR-TAF

空港 :

アタテュルク国際空港

イスタンブル-アタテュルク, トルコ

緯度: 40-58N, 経度: 028-49E, 海抜: 48m

現時点の気象観測

当レポートは42分前の00:50(UTC)に作成
の風 10kt
気温 16°C
湿度 88%
気圧 1021 hPa
視程10km以上
1,500メートル以下は雲なし、積乱雲なし

METAR: LTBA 160050Z 35010KT CAVOK 16/14 Q1021 NOSIG

時間: 04:32 (01:32 UTC)

予報

当レポートは2時間52分前の22:40(UTC)に作成
予報は16日の 00時(UTC)から 17日の 06時(UTC)まで有効
北/北東の風 9kt
視程10km以上
1,500メートル以下は雲なし、積乱雲なし
16日の 03時(UTC)から 16日の 07時(UTC)まで徐々に
高度1600ftの雲はほとんどない
高度2800ftの千切れ雲あり
確率 40%
16日の 11時(UTC)から 16日の 15時(UTC)まで
弱いにわか雨
16日の 17時(UTC)から 16日の 20時(UTC)まで徐々に
高度3500ftの雲は散在している

TAF: LTBA 152240Z 1600/1706 02009KT CAVOK BECMG 1603/1607 FEW016 BKN028 PROB40 1611/1615 -SHRA BECMG 1617/1620 SCT035

4,000以上の空港の気象観測と天気予報(METAR報とTAF報)

利用可能な観測所は地図上に黄色い丸と赤い丸で示す。

丸の上にカーソルを重ねると観測所名を参照できる。

次にクリックすると気象観測と天気予報を参照できる。

マップの切り替え:黒色「×」印の緑ボタンをクリックして拡大、「-」印の緑ボタンをクリックして縮小、緑色の三角印をクリックして隣りの地図に切り替え


METAR-TAF: